FHM5174 LGIR-EDLP
Flight info
| Callsign | FHM5174 |
|---|---|
| Flight time | 3h 7m |
| Altitude | 36000 |
| Route | EPALO UM749 ATV DCT BITLA DCT ENFAR DCT LURID DCT PETOV DCT RENKA DCT RUDNO M736 AKOSI DCT PILAM T843 DEMAB/N0363F240 T842 PELUN PELUN3H |
| Aircraft | A320/M-SDE3FGHIRWY/LB1 |
Departure
| Time | 2026-05-08 18:38 |
|---|---|
| Airport | Heraklion International Nikos Kazantzakis Airport (LGIR) |
Arrival
| Time | 2026-05-08 21:46 |
|---|---|
| Airport | Paderborn Lippstadt Airport (EDLP) |
| Time | Latitude | Longitude | Altitude | Speed | Heading |
|---|---|---|---|---|---|
| 2026-05-08 17:59 | 35.33918 | 25.16734 | 90 ft | 0 kts | 317° |
| 2026-05-08 18:34 | 35.33933 | 25.16733 | 92 ft | 7 kts | 13° |
| 2026-05-08 18:34 | 35.33958 | 25.16829 | 90 ft | 19 kts | 91° |
| 2026-05-08 18:34 | 35.33945 | 25.17013 | 91 ft | 22 kts | 95° |
| 2026-05-08 18:34 | 35.33933 | 25.17199 | 90 ft | 22 kts | 95° |
| 2026-05-08 18:35 | 35.33919 | 25.17391 | 91 ft | 23 kts | 95° |
| 2026-05-08 18:35 | 35.33905 | 25.17588 | 91 ft | 23 kts | 95° |
| 2026-05-08 18:35 | 35.33891 | 25.17787 | 92 ft | 24 kts | 94° |
| 2026-05-08 18:35 | 35.33877 | 25.17989 | 92 ft | 24 kts | 95° |
| 2026-05-08 18:36 | 35.33863 | 25.18194 | 93 ft | 24 kts | 95° |
| 2026-05-08 18:36 | 35.33849 | 25.18403 | 91 ft | 25 kts | 95° |
| 2026-05-08 18:36 | 35.33833 | 25.18621 | 90 ft | 26 kts | 95° |
| 2026-05-08 18:36 | 35.33821 | 25.18815 | 90 ft | 17 kts | 94° |
| 2026-05-08 18:37 | 35.33835 | 25.18963 | 90 ft | 19 kts | 62° |
| 2026-05-08 18:37 | 35.33906 | 25.19016 | 89 ft | 7 kts | 313° |
| 2026-05-08 18:37 | 35.33909 | 25.18993 | 91 ft | 0 kts | 275° |
| 2026-05-08 18:37 | 35.33927 | 25.18710 | 90 ft | 73 kts | 275° |
| 2026-05-08 18:38 | 35.33990 | 25.17822 | 95 ft | 133 kts | 275° |
| 2026-05-08 18:38 | 35.34072 | 25.16500 | 277 ft | 165 kts | 271° |
| 2026-05-08 18:38 | 35.34283 | 25.15135 | 938 ft | 169 kts | 291° |
| 2026-05-08 18:38 | 35.35175 | 25.14221 | 1589 ft | 174 kts | 344° |
| 2026-05-08 18:39 | 35.36331 | 25.13826 | 2153 ft | 181 kts | 344° |
| 2026-05-08 18:39 | 35.37615 | 25.13418 | 2441 ft | 201 kts | 342° |
| 2026-05-08 18:39 | 35.39033 | 25.12888 | 2681 ft | 225 kts | 340° |
| 2026-05-08 18:39 | 35.40586 | 25.12269 | 3001 ft | 245 kts | 340° |
| 2026-05-08 18:40 | 35.42279 | 25.11603 | 3392 ft | 267 kts | 341° |
| 2026-05-08 18:40 | 35.44090 | 25.10911 | 4048 ft | 275 kts | 341° |
| 2026-05-08 18:40 | 35.45925 | 25.10229 | 4912 ft | 276 kts | 341° |
| 2026-05-08 18:40 | 35.47772 | 25.09558 | 5797 ft | 277 kts | 340° |
| 2026-05-08 18:41 | 35.49609 | 25.08897 | 6721 ft | 275 kts | 339° |
| 2026-05-08 18:41 | 35.51445 | 25.08240 | 7583 ft | 275 kts | 339° |
| 2026-05-08 18:41 | 35.53280 | 25.07583 | 8444 ft | 275 kts | 338° |
| 2026-05-08 18:41 | 35.55122 | 25.06924 | 9289 ft | 276 kts | 338° |
| 2026-05-08 18:42 | 35.56969 | 25.06261 | 10113 ft | 277 kts | 337° |
| 2026-05-08 18:42 | 35.58212 | 25.05812 | 10411 ft | 288 kts | 338° |
| 2026-05-08 18:42 | 35.60210 | 25.05083 | 10626 ft | 311 kts | 338° |
| 2026-05-08 18:42 | 35.62324 | 25.04317 | 11119 ft | 321 kts | 338° |
| 2026-05-08 18:43 | 35.64480 | 25.03546 | 11795 ft | 325 kts | 339° |
| 2026-05-08 18:43 | 35.66664 | 25.02768 | 12505 ft | 328 kts | 339° |
| 2026-05-08 18:43 | 35.68867 | 25.01983 | 13212 ft | 331 kts | 339° |
| 2026-05-08 18:43 | 35.71091 | 25.01187 | 13907 ft | 334 kts | 339° |
| 2026-05-08 18:44 | 35.73343 | 25.00292 | 14486 ft | 338 kts | 336° |
| 2026-05-08 18:44 | 35.75530 | 24.99303 | 15051 ft | 341 kts | 335° |
| 2026-05-08 18:44 | 35.77776 | 24.98224 | 15649 ft | 344 kts | 334° |
| 2026-05-08 18:44 | 35.79986 | 24.97142 | 16226 ft | 348 kts | 334° |
| 2026-05-08 18:45 | 35.82247 | 24.96036 | 16807 ft | 351 kts | 334° |
| 2026-05-08 18:45 | 35.84538 | 24.94930 | 17388 ft | 355 kts | 335° |
| 2026-05-08 18:45 | 35.86847 | 24.93830 | 17952 ft | 358 kts | 335° |
| 2026-05-08 18:45 | 35.89191 | 24.92724 | 18500 ft | 362 kts | 335° |
| 2026-05-08 18:46 | 35.91556 | 24.91613 | 18992 ft | 365 kts | 335° |
| 2026-05-08 18:46 | 35.93946 | 24.90489 | 19488 ft | 368 kts | 335° |
| 2026-05-08 18:46 | 35.96349 | 24.89357 | 20001 ft | 371 kts | 335° |
| 2026-05-08 18:46 | 35.98765 | 24.88213 | 20518 ft | 374 kts | 334° |
| 2026-05-08 18:47 | 36.01204 | 24.87056 | 21018 ft | 376 kts | 334° |
| 2026-05-08 18:47 | 36.03657 | 24.85892 | 21512 ft | 379 kts | 334° |
| 2026-05-08 18:47 | 36.06130 | 24.84722 | 22007 ft | 382 kts | 334° |
| 2026-05-08 18:47 | 36.08624 | 24.83541 | 22507 ft | 385 kts | 334° |
| 2026-05-08 18:48 | 36.11141 | 24.82351 | 22992 ft | 388 kts | 334° |
| 2026-05-08 18:48 | 36.13674 | 24.81154 | 23464 ft | 391 kts | 334° |
| 2026-05-08 18:48 | 36.16226 | 24.79943 | 23880 ft | 394 kts | 334° |
| 2026-05-08 18:48 | 36.18792 | 24.78724 | 24282 ft | 396 kts | 334° |
| 2026-05-08 18:49 | 36.21371 | 24.77498 | 24693 ft | 398 kts | 334° |
| 2026-05-08 18:49 | 36.23956 | 24.76269 | 25113 ft | 398 kts | 334° |
| 2026-05-08 18:49 | 36.26551 | 24.75035 | 25513 ft | 399 kts | 334° |
| 2026-05-08 18:49 | 36.29148 | 24.73800 | 25905 ft | 401 kts | 334° |
| 2026-05-08 18:50 | 36.31725 | 24.72576 | 26278 ft | 402 kts | 334° |
| 2026-05-08 18:50 | 36.34339 | 24.71332 | 26644 ft | 403 kts | 334° |
| 2026-05-08 18:50 | 36.36965 | 24.70079 | 27004 ft | 405 kts | 334° |
| 2026-05-08 18:50 | 36.39600 | 24.68821 | 27382 ft | 406 kts | 334° |
| 2026-05-08 18:51 | 36.42240 | 24.67562 | 27718 ft | 408 kts | 333° |
| 2026-05-08 18:51 | 36.44895 | 24.66294 | 28067 ft | 409 kts | 333° |
| 2026-05-08 18:51 | 36.47557 | 24.65020 | 28433 ft | 411 kts | 333° |
| 2026-05-08 18:51 | 36.50227 | 24.63742 | 28764 ft | 412 kts | 333° |
| 2026-05-08 18:52 | 36.52912 | 24.62458 | 29082 ft | 414 kts | 333° |
| 2026-05-08 18:52 | 36.55607 | 24.61167 | 29395 ft | 415 kts | 333° |
| 2026-05-08 18:52 | 36.58309 | 24.59868 | 29703 ft | 417 kts | 333° |
| 2026-05-08 18:52 | 36.61022 | 24.58563 | 30002 ft | 418 kts | 333° |
| 2026-05-08 18:53 | 36.63743 | 24.57250 | 30267 ft | 420 kts | 333° |
| 2026-05-08 18:53 | 36.66472 | 24.55932 | 30498 ft | 421 kts | 333° |
| 2026-05-08 18:53 | 36.69210 | 24.54609 | 30726 ft | 423 kts | 333° |
| 2026-05-08 18:53 | 36.71958 | 24.53282 | 30947 ft | 424 kts | 333° |
| 2026-05-08 18:54 | 36.74709 | 24.51934 | 31176 ft | 424 kts | 330° |
| 2026-05-08 18:54 | 36.77326 | 24.50356 | 31448 ft | 422 kts | 328° |
| 2026-05-08 18:54 | 36.79990 | 24.48713 | 31750 ft | 421 kts | 328° |
| 2026-05-08 18:54 | 36.82574 | 24.47120 | 32034 ft | 420 kts | 328° |
| 2026-05-08 18:55 | 36.87815 | 24.43884 | 32617 ft | 419 kts | 328° |
| 2026-05-08 18:55 | 36.90427 | 24.42271 | 32909 ft | 419 kts | 328° |
| 2026-05-08 18:55 | 36.93036 | 24.40659 | 33193 ft | 418 kts | 327° |
| 2026-05-08 18:56 | 36.95648 | 24.39045 | 33472 ft | 418 kts | 327° |
| 2026-05-08 18:56 | 36.98253 | 24.37433 | 33790 ft | 417 kts | 327° |
| 2026-05-08 18:56 | 37.00845 | 24.35827 | 34114 ft | 415 kts | 327° |
| 2026-05-08 18:56 | 37.03433 | 24.34221 | 34388 ft | 414 kts | 327° |
| 2026-05-08 18:57 | 37.06010 | 24.32618 | 34644 ft | 413 kts | 327° |
| 2026-05-08 18:57 | 37.07710 | 24.31559 | 34808 ft | 412 kts | 327° |
| 2026-05-08 18:57 | 37.11146 | 24.29417 | 35124 ft | 411 kts | 327° |
| 2026-05-08 18:57 | 37.13711 | 24.27818 | 35352 ft | 410 kts | 327° |
| 2026-05-08 18:58 | 37.16263 | 24.26227 | 35573 ft | 410 kts | 327° |
| 2026-05-08 18:58 | 37.18812 | 24.24640 | 35785 ft | 409 kts | 327° |
| 2026-05-08 18:58 | 37.21360 | 24.23053 | 36009 ft | 408 kts | 327° |
| 2026-05-08 18:58 | 37.23899 | 24.21469 | 36115 ft | 406 kts | 327° |
| 2026-05-08 18:59 | 37.26418 | 24.19896 | 36094 ft | 404 kts | 327° |
| 2026-05-08 18:59 | 37.31431 | 24.16757 | 36095 ft | 402 kts | 326° |
| 2026-05-08 19:00 | 37.36404 | 24.13633 | 36101 ft | 402 kts | 326° |
| 2026-05-08 19:00 | 37.41402 | 24.10481 | 36103 ft | 401 kts | 326° |
| 2026-05-08 19:01 | 37.46396 | 24.07336 | 36100 ft | 401 kts | 326° |
| 2026-05-08 19:01 | 37.51399 | 24.04200 | 36131 ft | 402 kts | 326° |
| 2026-05-08 19:02 | 37.56402 | 24.01059 | 36125 ft | 401 kts | 326° |
| 2026-05-08 19:02 | 37.61385 | 23.97906 | 36115 ft | 400 kts | 326° |
| 2026-05-08 19:03 | 37.66369 | 23.94752 | 36119 ft | 400 kts | 326° |
| 2026-05-08 19:03 | 37.71356 | 23.91590 | 36121 ft | 400 kts | 326° |
| 2026-05-08 19:04 | 37.76305 | 23.88450 | 36134 ft | 398 kts | 326° |
| 2026-05-08 19:04 | 37.81250 | 23.85315 | 36125 ft | 397 kts | 326° |
| 2026-05-08 19:05 | 37.86176 | 23.82182 | 36122 ft | 396 kts | 326° |
| 2026-05-08 19:05 | 37.91037 | 23.78929 | 36114 ft | 393 kts | 323° |
| 2026-05-08 19:06 | 37.95691 | 23.75307 | 36108 ft | 391 kts | 321° |
| 2026-05-08 19:06 | 38.00274 | 23.71598 | 36138 ft | 390 kts | 320° |
| 2026-05-08 19:07 | 38.04868 | 23.67951 | 36118 ft | 389 kts | 321° |
| 2026-05-08 19:07 | 38.09481 | 23.64345 | 36111 ft | 389 kts | 321° |
| 2026-05-08 19:08 | 38.14085 | 23.60754 | 36100 ft | 388 kts | 321° |
| 2026-05-08 19:08 | 38.18682 | 23.57144 | 36095 ft | 388 kts | 321° |
| 2026-05-08 19:09 | 38.23280 | 23.53526 | 36097 ft | 388 kts | 321° |
| 2026-05-08 19:09 | 38.27865 | 23.49912 | 36095 ft | 388 kts | 321° |
| 2026-05-08 19:10 | 38.32426 | 23.46310 | 36088 ft | 388 kts | 321° |
| 2026-05-08 19:10 | 38.37013 | 23.42680 | 36067 ft | 388 kts | 321° |
| 2026-05-08 19:11 | 38.41606 | 23.39045 | 36066 ft | 389 kts | 321° |
| 2026-05-08 19:11 | 38.46219 | 23.35386 | 36065 ft | 390 kts | 321° |
| 2026-05-08 19:12 | 38.50837 | 23.31714 | 36068 ft | 391 kts | 321° |
| 2026-05-08 19:12 | 38.55462 | 23.28037 | 36088 ft | 392 kts | 321° |
| 2026-05-08 19:13 | 38.60096 | 23.24357 | 36080 ft | 392 kts | 321° |
| 2026-05-08 19:13 | 38.64725 | 23.20663 | 36076 ft | 392 kts | 320° |
| 2026-05-08 19:14 | 38.69357 | 23.16957 | 36078 ft | 393 kts | 321° |
| 2026-05-08 19:14 | 38.73989 | 23.13248 | 36079 ft | 393 kts | 321° |
| 2026-05-08 19:15 | 38.78590 | 23.09567 | 36106 ft | 392 kts | 321° |
| 2026-05-08 19:15 | 38.83187 | 23.05891 | 36081 ft | 388 kts | 321° |
| 2026-05-08 19:16 | 38.87757 | 23.02220 | 36074 ft | 387 kts | 321° |
| 2026-05-08 19:16 | 38.92321 | 22.98543 | 36075 ft | 387 kts | 321° |
| 2026-05-08 19:17 | 38.96893 | 22.94855 | 36077 ft | 387 kts | 321° |
| 2026-05-08 19:17 | 39.01460 | 22.91167 | 36081 ft | 388 kts | 321° |
| 2026-05-08 19:18 | 39.06025 | 22.87472 | 36115 ft | 388 kts | 321° |
| 2026-05-08 19:18 | 39.10587 | 22.83769 | 36106 ft | 387 kts | 321° |
| 2026-05-08 19:19 | 39.15147 | 22.80080 | 36098 ft | 387 kts | 321° |
| 2026-05-08 19:19 | 39.19679 | 22.76404 | 36098 ft | 387 kts | 321° |
| 2026-05-08 19:20 | 39.24253 | 22.72677 | 36098 ft | 386 kts | 321° |
| 2026-05-08 19:20 | 39.28759 | 22.68995 | 36130 ft | 386 kts | 321° |
| 2026-05-08 19:21 | 39.33333 | 22.65262 | 36097 ft | 387 kts | 322° |
| 2026-05-08 19:21 | 39.37862 | 22.61563 | 36068 ft | 387 kts | 322° |
| 2026-05-08 19:22 | 39.42417 | 22.57835 | 36063 ft | 388 kts | 322° |
| 2026-05-08 19:22 | 39.46980 | 22.54103 | 36059 ft | 388 kts | 322° |
| 2026-05-08 19:23 | 39.51541 | 22.50360 | 36068 ft | 388 kts | 321° |
| 2026-05-08 19:23 | 39.56087 | 22.46615 | 36078 ft | 390 kts | 322° |
| 2026-05-08 19:24 | 39.60670 | 22.42831 | 36063 ft | 391 kts | 322° |
| 2026-05-08 19:24 | 39.65257 | 22.39045 | 36064 ft | 391 kts | 322° |
| 2026-05-08 19:25 | 39.69863 | 22.35247 | 36068 ft | 391 kts | 322° |
| 2026-05-08 19:25 | 39.73709 | 22.32056 | 36071 ft | 392 kts | 322° |
| 2026-05-08 19:26 | 39.78267 | 22.28268 | 36067 ft | 391 kts | 322° |
| 2026-05-08 19:26 | 39.82862 | 22.24450 | 36061 ft | 393 kts | 322° |
| 2026-05-08 19:27 | 39.87484 | 22.20619 | 36055 ft | 394 kts | 322° |
| 2026-05-08 19:27 | 39.92106 | 22.16770 | 36051 ft | 394 kts | 322° |
| 2026-05-08 19:28 | 39.96733 | 22.12913 | 36058 ft | 395 kts | 322° |
| 2026-05-08 19:28 | 40.01362 | 22.09049 | 36065 ft | 395 kts | 322° |
| 2026-05-08 19:29 | 40.05983 | 22.05172 | 36067 ft | 395 kts | 322° |
| 2026-05-08 19:29 | 40.10616 | 22.01269 | 36079 ft | 397 kts | 322° |
| 2026-05-08 19:30 | 40.15269 | 21.97361 | 36080 ft | 398 kts | 322° |
| 2026-05-08 19:30 | 40.19939 | 21.93436 | 36088 ft | 398 kts | 322° |
| 2026-05-08 19:31 | 40.24604 | 21.89512 | 36093 ft | 399 kts | 322° |
| 2026-05-08 19:31 | 40.29264 | 21.85582 | 36117 ft | 399 kts | 323° |
| 2026-05-08 19:32 | 40.33941 | 21.81623 | 36090 ft | 401 kts | 323° |
| 2026-05-08 19:32 | 40.38639 | 21.77641 | 36085 ft | 403 kts | 323° |
| 2026-05-08 19:33 | 40.43352 | 21.73651 | 36081 ft | 404 kts | 323° |
| 2026-05-08 19:33 | 40.48076 | 21.69640 | 36079 ft | 404 kts | 323° |
| 2026-05-08 19:34 | 40.52800 | 21.65621 | 36085 ft | 404 kts | 323° |
| 2026-05-08 19:34 | 40.57498 | 21.61605 | 36066 ft | 406 kts | 323° |
| 2026-05-08 19:35 | 40.62237 | 21.57544 | 36061 ft | 407 kts | 323° |
| 2026-05-08 19:35 | 40.66994 | 21.53485 | 36061 ft | 407 kts | 323° |
| 2026-05-08 19:36 | 40.71750 | 21.49420 | 36063 ft | 408 kts | 323° |
| 2026-05-08 19:36 | 40.76504 | 21.45340 | 36066 ft | 408 kts | 323° |
| 2026-05-08 19:37 | 40.81259 | 21.41249 | 36066 ft | 408 kts | 323° |
| 2026-05-08 19:37 | 40.86014 | 21.37150 | 36065 ft | 408 kts | 323° |
| 2026-05-08 19:38 | 40.90750 | 21.32999 | 36077 ft | 408 kts | 322° |
| 2026-05-08 19:38 | 40.95414 | 21.28722 | 36080 ft | 408 kts | 321° |
| 2026-05-08 19:39 | 41.00040 | 21.24461 | 36077 ft | 408 kts | 321° |
| 2026-05-08 19:39 | 41.04745 | 21.20161 | 36067 ft | 409 kts | 322° |
| 2026-05-08 19:40 | 41.09413 | 21.15902 | 36057 ft | 410 kts | 322° |
| 2026-05-08 19:40 | 41.14156 | 21.11577 | 36056 ft | 411 kts | 322° |
| 2026-05-08 19:41 | 41.18838 | 21.07288 | 36064 ft | 411 kts | 322° |
| 2026-05-08 19:41 | 41.23539 | 21.02962 | 36073 ft | 411 kts | 322° |
| 2026-05-08 19:42 | 41.28243 | 20.98625 | 36090 ft | 412 kts | 322° |
| 2026-05-08 19:42 | 41.32961 | 20.94277 | 36067 ft | 413 kts | 322° |
| 2026-05-08 19:43 | 41.37699 | 20.89911 | 36060 ft | 415 kts | 322° |
| 2026-05-08 19:43 | 41.42451 | 20.85533 | 36058 ft | 415 kts | 322° |
| 2026-05-08 19:44 | 41.47200 | 20.81130 | 36060 ft | 416 kts | 322° |
| 2026-05-08 19:44 | 41.51939 | 20.76723 | 36079 ft | 415 kts | 322° |
| 2026-05-08 19:45 | 41.56692 | 20.72303 | 36066 ft | 417 kts | 322° |
| 2026-05-08 19:45 | 41.61455 | 20.67864 | 36053 ft | 418 kts | 322° |
| 2026-05-08 19:46 | 41.66223 | 20.63417 | 36060 ft | 419 kts | 322° |
| 2026-05-08 19:46 | 41.73358 | 20.56738 | 36056 ft | 419 kts | 322° |
| 2026-05-08 19:47 | 41.78168 | 20.52238 | 36061 ft | 420 kts | 323° |
| 2026-05-08 19:47 | 41.83026 | 20.47956 | 36050 ft | 421 kts | 324° |
| 2026-05-08 19:48 | 41.87973 | 20.43728 | 36052 ft | 421 kts | 324° |
| 2026-05-08 19:48 | 41.92898 | 20.39473 | 36052 ft | 421 kts | 324° |
| 2026-05-08 19:49 | 41.97808 | 20.35170 | 36052 ft | 420 kts | 324° |
| 2026-05-08 19:49 | 42.02712 | 20.30854 | 36046 ft | 421 kts | 324° |
| 2026-05-08 19:50 | 42.07620 | 20.26531 | 36034 ft | 422 kts | 324° |
| 2026-05-08 19:50 | 42.12532 | 20.22189 | 36032 ft | 423 kts | 324° |
| 2026-05-08 19:51 | 42.17462 | 20.17833 | 36025 ft | 423 kts | 324° |
| 2026-05-08 19:51 | 42.22360 | 20.13508 | 36035 ft | 424 kts | 324° |
| 2026-05-08 19:52 | 42.27324 | 20.09108 | 36042 ft | 424 kts | 324° |
| 2026-05-08 19:52 | 42.32223 | 20.04743 | 36032 ft | 424 kts | 324° |
| 2026-05-08 19:53 | 42.37194 | 20.00328 | 36035 ft | 425 kts | 324° |
| 2026-05-08 19:53 | 42.42102 | 19.95963 | 36036 ft | 425 kts | 324° |
| 2026-05-08 19:54 | 42.47027 | 19.91565 | 36045 ft | 425 kts | 324° |
| 2026-05-08 19:54 | 42.51969 | 19.87136 | 36035 ft | 426 kts | 324° |
| 2026-05-08 19:55 | 42.56925 | 19.82695 | 36033 ft | 427 kts | 324° |
| 2026-05-08 19:55 | 42.61876 | 19.78240 | 36034 ft | 427 kts | 323° |
| 2026-05-08 19:56 | 42.66828 | 19.73777 | 36033 ft | 427 kts | 324° |
| 2026-05-08 19:56 | 42.71786 | 19.69316 | 36037 ft | 427 kts | 323° |
| 2026-05-08 19:57 | 42.76743 | 19.64841 | 36035 ft | 428 kts | 323° |
| 2026-05-08 19:57 | 42.81707 | 19.60347 | 36036 ft | 428 kts | 323° |
| 2026-05-08 19:58 | 42.86665 | 19.55843 | 36038 ft | 428 kts | 323° |
| 2026-05-08 19:58 | 42.91625 | 19.51323 | 36037 ft | 428 kts | 323° |
| 2026-05-08 19:59 | 42.96554 | 19.46839 | 36054 ft | 429 kts | 323° |
| 2026-05-08 19:59 | 43.01515 | 19.42312 | 36051 ft | 429 kts | 323° |
| 2026-05-08 20:00 | 43.06482 | 19.37764 | 36052 ft | 429 kts | 323° |
| 2026-05-08 20:00 | 43.11444 | 19.33216 | 36053 ft | 429 kts | 323° |
| 2026-05-08 20:01 | 43.16406 | 19.28653 | 36051 ft | 429 kts | 323° |
| 2026-05-08 20:01 | 43.21377 | 19.24089 | 36046 ft | 429 kts | 323° |
| 2026-05-08 20:02 | 43.26337 | 19.19525 | 36044 ft | 429 kts | 323° |
| 2026-05-08 20:02 | 43.31283 | 19.14952 | 36041 ft | 429 kts | 323° |
| 2026-05-08 20:03 | 43.36235 | 19.10373 | 36048 ft | 429 kts | 323° |
| 2026-05-08 20:03 | 43.41189 | 19.05780 | 36046 ft | 430 kts | 323° |
| 2026-05-08 20:04 | 43.46115 | 19.01202 | 36039 ft | 430 kts | 323° |
| 2026-05-08 20:04 | 43.51077 | 18.96584 | 36042 ft | 430 kts | 323° |
| 2026-05-08 20:05 | 43.56038 | 18.91956 | 36041 ft | 430 kts | 323° |
| 2026-05-08 20:05 | 43.60990 | 18.87324 | 36066 ft | 430 kts | 323° |
| 2026-05-08 20:06 | 43.65954 | 18.82672 | 36068 ft | 431 kts | 323° |
| 2026-05-08 20:06 | 43.70927 | 18.78004 | 36064 ft | 432 kts | 323° |
| 2026-05-08 20:07 | 43.75896 | 18.73334 | 36070 ft | 432 kts | 322° |
| 2026-05-08 20:07 | 43.80859 | 18.68651 | 36068 ft | 432 kts | 322° |
| 2026-05-08 20:08 | 43.84983 | 18.64759 | 36093 ft | 432 kts | 322° |
| 2026-05-08 20:08 | 43.90751 | 18.59305 | 36081 ft | 432 kts | 322° |
| 2026-05-08 20:09 | 43.95706 | 18.54603 | 36079 ft | 432 kts | 322° |
| 2026-05-08 20:09 | 43.99861 | 18.50658 | 36080 ft | 432 kts | 322° |
| 2026-05-08 20:10 | 44.04817 | 18.45948 | 36072 ft | 431 kts | 322° |
| 2026-05-08 20:10 | 44.09746 | 18.41247 | 36067 ft | 432 kts | 322° |
| 2026-05-08 20:11 | 44.14693 | 18.36511 | 36065 ft | 432 kts | 322° |
| 2026-05-08 20:11 | 44.19651 | 18.31759 | 36060 ft | 432 kts | 322° |
| 2026-05-08 20:12 | 44.24615 | 18.27007 | 36052 ft | 433 kts | 322° |
| 2026-05-08 20:12 | 44.29570 | 18.22247 | 36051 ft | 432 kts | 322° |
| 2026-05-08 20:13 | 44.34523 | 18.17462 | 36073 ft | 433 kts | 322° |
| 2026-05-08 20:13 | 44.39477 | 18.12679 | 36067 ft | 433 kts | 322° |
| 2026-05-08 20:14 | 44.44400 | 18.07919 | 36066 ft | 433 kts | 322° |
| 2026-05-08 20:14 | 44.49352 | 18.03114 | 36061 ft | 433 kts | 322° |
| 2026-05-08 20:15 | 44.54297 | 17.98299 | 36070 ft | 433 kts | 322° |
| 2026-05-08 20:15 | 44.59250 | 17.93477 | 36069 ft | 433 kts | 322° |
| 2026-05-08 20:16 | 44.64200 | 17.88642 | 36063 ft | 434 kts | 322° |
| 2026-05-08 20:16 | 44.69159 | 17.83798 | 36062 ft | 434 kts | 322° |
| 2026-05-08 20:17 | 44.74123 | 17.78938 | 36063 ft | 434 kts | 322° |
| 2026-05-08 20:17 | 44.79081 | 17.74063 | 36073 ft | 434 kts | 322° |
| 2026-05-08 20:18 | 44.84032 | 17.69190 | 36081 ft | 435 kts | 321° |
| 2026-05-08 20:18 | 44.88956 | 17.64329 | 36079 ft | 435 kts | 321° |
| 2026-05-08 20:19 | 44.93911 | 17.59431 | 36081 ft | 435 kts | 321° |
| 2026-05-08 20:19 | 44.98866 | 17.54525 | 36084 ft | 435 kts | 321° |
| 2026-05-08 20:20 | 45.03819 | 17.49612 | 36070 ft | 435 kts | 321° |
| 2026-05-08 20:20 | 45.08767 | 17.44682 | 36084 ft | 435 kts | 321° |
| 2026-05-08 20:21 | 45.13706 | 17.39729 | 36080 ft | 434 kts | 320° |
| 2026-05-08 20:21 | 45.18431 | 17.34444 | 36073 ft | 432 kts | 316° |
| 2026-05-08 20:22 | 45.22993 | 17.28892 | 36073 ft | 432 kts | 315° |
| 2026-05-08 20:22 | 45.27555 | 17.23343 | 36074 ft | 432 kts | 316° |
| 2026-05-08 20:23 | 45.32135 | 17.17891 | 36078 ft | 432 kts | 316° |
| 2026-05-08 20:23 | 45.36788 | 17.12387 | 36073 ft | 432 kts | 316° |
| 2026-05-08 20:24 | 45.41378 | 17.06927 | 36068 ft | 432 kts | 316° |
| 2026-05-08 20:24 | 45.45979 | 17.01426 | 36070 ft | 432 kts | 316° |
| 2026-05-08 20:25 | 45.50583 | 16.95908 | 36084 ft | 432 kts | 316° |
| 2026-05-08 20:25 | 45.55175 | 16.90386 | 36077 ft | 432 kts | 316° |
| 2026-05-08 20:26 | 45.59772 | 16.84851 | 36070 ft | 432 kts | 316° |
| 2026-05-08 20:26 | 45.64367 | 16.79325 | 36068 ft | 432 kts | 316° |
| 2026-05-08 20:27 | 45.68957 | 16.73791 | 36064 ft | 431 kts | 316° |
| 2026-05-08 20:27 | 45.73545 | 16.68232 | 36073 ft | 432 kts | 316° |
| 2026-05-08 20:28 | 45.78128 | 16.62667 | 36069 ft | 432 kts | 316° |
| 2026-05-08 20:28 | 45.82689 | 16.57125 | 36063 ft | 433 kts | 316° |
| 2026-05-08 20:29 | 45.87283 | 16.51521 | 36064 ft | 433 kts | 316° |
| 2026-05-08 20:29 | 45.91875 | 16.45916 | 36067 ft | 433 kts | 316° |
| 2026-05-08 20:30 | 45.96466 | 16.40298 | 36082 ft | 433 kts | 316° |
| 2026-05-08 20:30 | 46.01051 | 16.34670 | 36090 ft | 433 kts | 315° |
| 2026-05-08 20:31 | 46.05628 | 16.29034 | 36090 ft | 433 kts | 315° |
| 2026-05-08 20:31 | 46.10201 | 16.23399 | 36088 ft | 433 kts | 315° |
| 2026-05-08 20:32 | 46.14772 | 16.17750 | 36084 ft | 432 kts | 315° |
| 2026-05-08 20:32 | 46.19331 | 16.12092 | 36104 ft | 432 kts | 315° |
| 2026-05-08 20:33 | 46.23869 | 16.06468 | 36101 ft | 432 kts | 315° |
| 2026-05-08 20:33 | 46.28449 | 16.00774 | 36101 ft | 431 kts | 315° |
| 2026-05-08 20:34 | 46.33157 | 15.95366 | 36097 ft | 433 kts | 320° |
| 2026-05-08 20:35 | 46.40497 | 15.87814 | 36091 ft | 433 kts | 320° |
| 2026-05-08 20:35 | 46.45407 | 15.82739 | 36097 ft | 433 kts | 320° |
| 2026-05-08 20:36 | 46.50307 | 15.77660 | 36101 ft | 433 kts | 320° |
| 2026-05-08 20:36 | 46.55207 | 15.72564 | 36100 ft | 433 kts | 320° |
| 2026-05-08 20:37 | 46.60109 | 15.67461 | 36119 ft | 433 kts | 320° |
| 2026-05-08 20:37 | 46.64998 | 15.62361 | 36108 ft | 433 kts | 320° |
| 2026-05-08 20:38 | 46.69888 | 15.57244 | 36114 ft | 433 kts | 320° |
| 2026-05-08 20:38 | 46.74778 | 15.52123 | 36103 ft | 433 kts | 320° |
| 2026-05-08 20:39 | 46.79672 | 15.46986 | 36103 ft | 433 kts | 320° |
| 2026-05-08 20:39 | 46.84533 | 15.41871 | 36105 ft | 433 kts | 320° |
| 2026-05-08 20:40 | 46.89412 | 15.36720 | 36104 ft | 433 kts | 320° |
| 2026-05-08 20:40 | 46.94291 | 15.31550 | 36110 ft | 433 kts | 320° |
| 2026-05-08 20:41 | 46.99170 | 15.26360 | 36119 ft | 433 kts | 320° |
| 2026-05-08 20:41 | 47.04049 | 15.21170 | 36114 ft | 433 kts | 320° |
| 2026-05-08 20:42 | 47.08924 | 15.15980 | 36101 ft | 433 kts | 320° |
| 2026-05-08 20:42 | 47.13795 | 15.10781 | 36094 ft | 433 kts | 320° |
| 2026-05-08 20:43 | 47.18670 | 15.05580 | 36087 ft | 433 kts | 320° |
| 2026-05-08 20:43 | 47.23539 | 15.00366 | 36111 ft | 433 kts | 320° |
| 2026-05-08 20:44 | 47.28406 | 14.95124 | 36114 ft | 433 kts | 320° |
| 2026-05-08 20:44 | 47.33277 | 14.89874 | 36111 ft | 434 kts | 320° |
| 2026-05-08 20:45 | 47.38149 | 14.84613 | 36112 ft | 434 kts | 319° |
| 2026-05-08 20:45 | 47.43018 | 14.79330 | 36114 ft | 434 kts | 319° |
| 2026-05-08 20:46 | 47.47824 | 14.74107 | 36112 ft | 434 kts | 319° |
| 2026-05-08 20:46 | 47.52606 | 14.68902 | 36128 ft | 434 kts | 319° |
| 2026-05-08 20:47 | 47.57479 | 14.63600 | 36115 ft | 434 kts | 319° |
| 2026-05-08 20:47 | 47.62348 | 14.58287 | 36109 ft | 434 kts | 319° |
| 2026-05-08 20:48 | 47.67207 | 14.52964 | 36098 ft | 434 kts | 319° |
| 2026-05-08 20:48 | 47.72066 | 14.47621 | 36101 ft | 435 kts | 319° |
| 2026-05-08 20:49 | 47.76931 | 14.42266 | 36119 ft | 434 kts | 319° |
| 2026-05-08 20:49 | 47.81776 | 14.36919 | 36113 ft | 433 kts | 319° |
| 2026-05-08 20:50 | 47.86609 | 14.31569 | 36106 ft | 433 kts | 319° |
| 2026-05-08 20:50 | 47.91434 | 14.26216 | 36102 ft | 432 kts | 319° |
| 2026-05-08 20:51 | 47.96229 | 14.20901 | 36097 ft | 432 kts | 319° |
| 2026-05-08 20:51 | 48.01038 | 14.15550 | 36093 ft | 431 kts | 319° |
| 2026-05-08 20:52 | 48.05848 | 14.10185 | 36106 ft | 430 kts | 319° |
| 2026-05-08 20:52 | 48.10638 | 14.04813 | 36100 ft | 430 kts | 319° |
| 2026-05-08 20:53 | 48.15426 | 13.99430 | 36096 ft | 429 kts | 319° |
| 2026-05-08 20:53 | 48.20204 | 13.94058 | 36093 ft | 429 kts | 319° |
| 2026-05-08 20:54 | 48.24986 | 13.88685 | 36102 ft | 429 kts | 319° |
| 2026-05-08 20:54 | 48.29758 | 13.83298 | 36108 ft | 429 kts | 319° |
| 2026-05-08 20:55 | 48.33713 | 13.78809 | 36102 ft | 428 kts | 319° |
| 2026-05-08 20:55 | 48.38461 | 13.73410 | 36110 ft | 428 kts | 319° |
| 2026-05-08 20:56 | 48.43211 | 13.68012 | 36102 ft | 427 kts | 319° |
| 2026-05-08 20:56 | 48.47945 | 13.62612 | 36109 ft | 427 kts | 319° |
| 2026-05-08 20:57 | 48.52686 | 13.57195 | 36118 ft | 427 kts | 319° |
| 2026-05-08 20:57 | 48.57404 | 13.51775 | 36126 ft | 426 kts | 319° |
| 2026-05-08 20:58 | 48.62048 | 13.46230 | 36115 ft | 425 kts | 316° |
| 2026-05-08 20:58 | 48.66529 | 13.40498 | 36111 ft | 424 kts | 316° |
| 2026-05-08 20:59 | 48.71037 | 13.34691 | 36109 ft | 424 kts | 316° |
| 2026-05-08 20:59 | 48.75560 | 13.28935 | 36125 ft | 425 kts | 316° |
| 2026-05-08 21:00 | 48.80098 | 13.23194 | 36120 ft | 425 kts | 316° |
| 2026-05-08 21:00 | 48.84633 | 13.17435 | 36131 ft | 425 kts | 317° |
| 2026-05-08 21:01 | 48.89151 | 13.11664 | 36127 ft | 425 kts | 316° |
| 2026-05-08 21:01 | 48.93670 | 13.05882 | 36124 ft | 424 kts | 316° |
| 2026-05-08 21:02 | 48.98183 | 13.00079 | 36124 ft | 424 kts | 316° |
| 2026-05-08 21:02 | 49.02680 | 12.94284 | 36128 ft | 424 kts | 316° |
| 2026-05-08 21:03 | 49.07160 | 12.88513 | 36124 ft | 424 kts | 316° |
| 2026-05-08 21:03 | 49.11691 | 12.82653 | 36119 ft | 424 kts | 316° |
| 2026-05-08 21:04 | 49.16165 | 12.76858 | 36116 ft | 424 kts | 316° |
| 2026-05-08 21:04 | 49.20665 | 12.71022 | 36121 ft | 425 kts | 316° |
| 2026-05-08 21:05 | 49.25167 | 12.65160 | 36126 ft | 425 kts | 316° |
| 2026-05-08 21:05 | 49.29661 | 12.59292 | 36142 ft | 425 kts | 316° |
| 2026-05-08 21:06 | 49.34157 | 12.53420 | 36145 ft | 425 kts | 317° |
| 2026-05-08 21:06 | 49.38765 | 12.47711 | 36143 ft | 425 kts | 319° |
| 2026-05-08 21:07 | 49.43438 | 12.42136 | 36136 ft | 426 kts | 319° |
| 2026-05-08 21:07 | 49.48105 | 12.36526 | 36131 ft | 426 kts | 319° |
| 2026-05-08 21:08 | 49.52745 | 12.30857 | 36134 ft | 425 kts | 319° |
| 2026-05-08 21:08 | 49.57370 | 12.25161 | 36135 ft | 425 kts | 319° |
| 2026-05-08 21:09 | 49.61989 | 12.19466 | 36139 ft | 426 kts | 319° |
| 2026-05-08 21:09 | 49.66612 | 12.13759 | 36143 ft | 426 kts | 319° |
| 2026-05-08 21:10 | 49.71107 | 12.07909 | 36145 ft | 423 kts | 311° |
| 2026-05-08 21:10 | 49.74502 | 12.00574 | 36140 ft | 420 kts | 300° |
| 2026-05-08 21:11 | 49.77604 | 11.92916 | 36137 ft | 420 kts | 300° |
| 2026-05-08 21:11 | 49.80705 | 11.85254 | 36134 ft | 420 kts | 300° |
| 2026-05-08 21:12 | 49.83794 | 11.77569 | 36140 ft | 420 kts | 300° |
| 2026-05-08 21:12 | 49.86866 | 11.69872 | 36137 ft | 420 kts | 300° |
| 2026-05-08 21:13 | 49.89940 | 11.62156 | 36148 ft | 420 kts | 300° |
| 2026-05-08 21:13 | 49.92996 | 11.54436 | 36149 ft | 420 kts | 300° |
| 2026-05-08 21:14 | 49.96053 | 11.46704 | 36156 ft | 420 kts | 300° |
| 2026-05-08 21:14 | 49.99117 | 11.38954 | 36163 ft | 420 kts | 300° |
| 2026-05-08 21:15 | 50.02168 | 11.31210 | 36167 ft | 420 kts | 300° |
| 2026-05-08 21:15 | 50.05217 | 11.23448 | 36166 ft | 421 kts | 300° |
| 2026-05-08 21:16 | 50.08238 | 11.15720 | 36174 ft | 421 kts | 300° |
| 2026-05-08 21:16 | 50.11298 | 11.07876 | 36175 ft | 421 kts | 300° |
| 2026-05-08 21:17 | 50.14316 | 11.00127 | 36189 ft | 421 kts | 300° |
| 2026-05-08 21:17 | 50.17342 | 10.92322 | 36185 ft | 421 kts | 300° |
| 2026-05-08 21:18 | 50.20366 | 10.84493 | 36188 ft | 421 kts | 300° |
| 2026-05-08 21:18 | 50.23392 | 10.76659 | 36186 ft | 421 kts | 300° |
| 2026-05-08 21:19 | 50.26414 | 10.68808 | 36174 ft | 421 kts | 300° |
| 2026-05-08 21:19 | 50.27921 | 10.64880 | 36044 ft | 422 kts | 300° |
| 2026-05-08 21:19 | 50.29430 | 10.60941 | 35798 ft | 421 kts | 300° |
| 2026-05-08 21:19 | 50.30934 | 10.57015 | 35566 ft | 420 kts | 300° |
| 2026-05-08 21:20 | 50.32429 | 10.53102 | 35311 ft | 418 kts | 300° |
| 2026-05-08 21:20 | 50.33909 | 10.49223 | 34904 ft | 413 kts | 300° |
| 2026-05-08 21:20 | 50.35375 | 10.45371 | 34409 ft | 411 kts | 300° |
| 2026-05-08 21:20 | 50.36835 | 10.41529 | 33866 ft | 409 kts | 299° |
| 2026-05-08 21:21 | 50.38264 | 10.37760 | 33375 ft | 404 kts | 299° |
| 2026-05-08 21:21 | 50.39708 | 10.33948 | 32885 ft | 401 kts | 299° |
| 2026-05-08 21:21 | 50.41105 | 10.30254 | 32408 ft | 397 kts | 299° |
| 2026-05-08 21:21 | 50.42507 | 10.26547 | 31942 ft | 393 kts | 299° |
| 2026-05-08 21:22 | 50.43896 | 10.22871 | 31478 ft | 390 kts | 299° |
| 2026-05-08 21:22 | 50.45275 | 10.19217 | 31024 ft | 387 kts | 299° |
| 2026-05-08 21:22 | 50.46637 | 10.15593 | 30565 ft | 384 kts | 299° |
| 2026-05-08 21:22 | 50.47986 | 10.11994 | 30123 ft | 381 kts | 299° |
| 2026-05-08 21:23 | 50.49326 | 10.08425 | 29662 ft | 377 kts | 299° |
| 2026-05-08 21:23 | 50.50646 | 10.04901 | 29248 ft | 372 kts | 299° |
| 2026-05-08 21:23 | 50.51952 | 10.01410 | 28836 ft | 368 kts | 299° |
| 2026-05-08 21:23 | 50.53240 | 9.97963 | 28429 ft | 364 kts | 299° |
| 2026-05-08 21:24 | 50.54612 | 9.94644 | 28007 ft | 361 kts | 307° |
| 2026-05-08 21:24 | 50.56191 | 9.91597 | 27596 ft | 358 kts | 308° |
| 2026-05-08 21:24 | 50.57762 | 9.88565 | 27164 ft | 355 kts | 307° |
| 2026-05-08 21:24 | 50.59309 | 9.85567 | 26743 ft | 352 kts | 307° |
| 2026-05-08 21:25 | 50.60845 | 9.82577 | 26312 ft | 349 kts | 307° |
| 2026-05-08 21:25 | 50.62368 | 9.79613 | 25878 ft | 347 kts | 307° |
| 2026-05-08 21:25 | 50.63885 | 9.76660 | 25427 ft | 345 kts | 307° |
| 2026-05-08 21:25 | 50.65372 | 9.73767 | 24988 ft | 344 kts | 307° |
| 2026-05-08 21:26 | 50.66895 | 9.70803 | 24543 ft | 343 kts | 307° |
| 2026-05-08 21:26 | 50.68371 | 9.67929 | 24088 ft | 342 kts | 307° |
| 2026-05-08 21:26 | 50.69867 | 9.65014 | 23613 ft | 341 kts | 307° |
| 2026-05-08 21:26 | 50.71352 | 9.62112 | 23128 ft | 339 kts | 307° |
| 2026-05-08 21:27 | 50.72831 | 9.59219 | 22684 ft | 337 kts | 307° |
| 2026-05-08 21:27 | 50.74296 | 9.56346 | 22243 ft | 335 kts | 307° |
| 2026-05-08 21:27 | 50.75747 | 9.53493 | 21806 ft | 333 kts | 307° |
| 2026-05-08 21:27 | 50.77197 | 9.50646 | 21383 ft | 331 kts | 307° |
| 2026-05-08 21:28 | 50.78641 | 9.47807 | 20955 ft | 330 kts | 307° |
| 2026-05-08 21:28 | 50.80073 | 9.44985 | 20536 ft | 328 kts | 307° |
| 2026-05-08 21:28 | 50.81504 | 9.42167 | 20118 ft | 327 kts | 307° |
| 2026-05-08 21:28 | 50.82930 | 9.39358 | 19699 ft | 327 kts | 307° |
| 2026-05-08 21:29 | 50.84352 | 9.36556 | 19284 ft | 326 kts | 307° |
| 2026-05-08 21:29 | 50.85775 | 9.33751 | 18871 ft | 326 kts | 307° |
| 2026-05-08 21:29 | 50.87189 | 9.30952 | 18454 ft | 326 kts | 307° |
| 2026-05-08 21:29 | 50.88603 | 9.28147 | 18007 ft | 325 kts | 307° |
| 2026-05-08 21:30 | 50.90014 | 9.25346 | 17595 ft | 324 kts | 307° |
| 2026-05-08 21:30 | 50.91395 | 9.22607 | 17202 ft | 322 kts | 307° |
| 2026-05-08 21:30 | 50.92789 | 9.19841 | 16808 ft | 320 kts | 307° |
| 2026-05-08 21:30 | 50.94173 | 9.17089 | 16411 ft | 319 kts | 307° |
| 2026-05-08 21:31 | 50.95551 | 9.14340 | 16032 ft | 318 kts | 307° |
| 2026-05-08 21:31 | 50.96923 | 9.11601 | 15650 ft | 317 kts | 307° |
| 2026-05-08 21:31 | 50.98281 | 9.08894 | 15501 ft | 308 kts | 307° |
| 2026-05-08 21:31 | 50.99591 | 9.06278 | 15387 ft | 298 kts | 307° |
| 2026-05-08 21:32 | 51.00866 | 9.03735 | 15261 ft | 290 kts | 307° |
| 2026-05-08 21:32 | 51.02102 | 9.01262 | 15135 ft | 281 kts | 307° |
| 2026-05-08 21:32 | 51.03301 | 8.98858 | 15017 ft | 274 kts | 307° |
| 2026-05-08 21:32 | 51.04465 | 8.96518 | 14895 ft | 266 kts | 307° |
| 2026-05-08 21:33 | 51.05653 | 8.94280 | 14636 ft | 265 kts | 314° |
| 2026-05-08 21:33 | 51.07042 | 8.92320 | 14292 ft | 268 kts | 320° |
| 2026-05-08 21:33 | 51.08531 | 8.90502 | 13950 ft | 271 kts | 322° |
| 2026-05-08 21:33 | 51.10052 | 8.88720 | 13578 ft | 272 kts | 322° |
| 2026-05-08 21:34 | 51.11573 | 8.86933 | 13229 ft | 272 kts | 321° |
| 2026-05-08 21:34 | 51.13087 | 8.85121 | 12888 ft | 272 kts | 321° |
| 2026-05-08 21:34 | 51.14576 | 8.83307 | 12554 ft | 272 kts | 321° |
| 2026-05-08 21:34 | 51.16090 | 8.81436 | 12209 ft | 272 kts | 320° |
| 2026-05-08 21:35 | 51.17564 | 8.79601 | 11871 ft | 272 kts | 320° |
| 2026-05-08 21:35 | 51.19050 | 8.77743 | 11532 ft | 272 kts | 320° |
| 2026-05-08 21:35 | 51.20536 | 8.75882 | 11194 ft | 272 kts | 320° |
| 2026-05-08 21:35 | 51.22022 | 8.74019 | 10857 ft | 271 kts | 320° |
| 2026-05-08 21:36 | 51.23504 | 8.72155 | 10513 ft | 271 kts | 320° |
| 2026-05-08 21:36 | 51.24986 | 8.70287 | 10107 ft | 273 kts | 320° |
| 2026-05-08 21:36 | 51.26488 | 8.68397 | 9665 ft | 275 kts | 320° |
| 2026-05-08 21:36 | 51.27980 | 8.66521 | 9296 ft | 268 kts | 321° |
| 2026-05-08 21:37 | 51.29421 | 8.64709 | 8975 ft | 261 kts | 321° |
| 2026-05-08 21:37 | 51.30844 | 8.62916 | 8651 ft | 259 kts | 321° |
| 2026-05-08 21:37 | 51.32249 | 8.61142 | 8323 ft | 256 kts | 321° |
| 2026-05-08 21:37 | 51.33637 | 8.59388 | 8002 ft | 253 kts | 321° |
| 2026-05-08 21:38 | 51.35013 | 8.57649 | 7685 ft | 250 kts | 320° |
| 2026-05-08 21:38 | 51.36350 | 8.55956 | 7380 ft | 247 kts | 321° |
| 2026-05-08 21:38 | 51.37708 | 8.54238 | 7084 ft | 244 kts | 321° |
| 2026-05-08 21:38 | 51.39017 | 8.52586 | 6770 ft | 242 kts | 321° |
| 2026-05-08 21:39 | 51.40321 | 8.50935 | 6449 ft | 236 kts | 321° |
| 2026-05-08 21:39 | 51.41584 | 8.49332 | 6146 ft | 225 kts | 321° |
| 2026-05-08 21:39 | 51.42783 | 8.47805 | 5871 ft | 218 kts | 321° |
| 2026-05-08 21:39 | 51.43966 | 8.46297 | 5604 ft | 216 kts | 320° |
| 2026-05-08 21:40 | 51.45135 | 8.44804 | 5334 ft | 214 kts | 321° |
| 2026-05-08 21:40 | 51.46275 | 8.43353 | 5081 ft | 208 kts | 321° |
| 2026-05-08 21:40 | 51.47409 | 8.41908 | 4802 ft | 207 kts | 321° |
| 2026-05-08 21:41 | 51.49462 | 8.40122 | 4308 ft | 201 kts | 347° |
| 2026-05-08 21:41 | 51.50872 | 8.40008 | 3887 ft | 203 kts | 9° |
| 2026-05-08 21:41 | 51.52176 | 8.40662 | 3653 ft | 193 kts | 30° |
| 2026-05-08 21:41 | 51.53233 | 8.41899 | 3450 ft | 185 kts | 47° |
| 2026-05-08 21:42 | 51.53992 | 8.43520 | 3221 ft | 178 kts | 59° |
| 2026-05-08 21:42 | 51.54665 | 8.45155 | 2980 ft | 174 kts | 59° |
| 2026-05-08 21:42 | 51.55324 | 8.46757 | 2738 ft | 167 kts | 59° |
| 2026-05-08 21:42 | 51.55929 | 8.48228 | 2540 ft | 150 kts | 60° |
| 2026-05-08 21:43 | 51.56478 | 8.49567 | 2348 ft | 143 kts | 61° |
| 2026-05-08 21:43 | 51.57017 | 8.50884 | 2147 ft | 140 kts | 61° |
| 2026-05-08 21:43 | 51.57551 | 8.52190 | 1952 ft | 138 kts | 61° |
| 2026-05-08 21:43 | 51.58081 | 8.53483 | 1747 ft | 138 kts | 61° |
| 2026-05-08 21:44 | 51.58608 | 8.54766 | 1573 ft | 136 kts | 58° |
| 2026-05-08 21:44 | 51.59138 | 8.56028 | 1365 ft | 135 kts | 58° |
| 2026-05-08 21:44 | 51.59642 | 8.57291 | 1218 ft | 134 kts | 59° |
| 2026-05-08 21:44 | 51.60157 | 8.58527 | 1025 ft | 133 kts | 59° |
| 2026-05-08 21:45 | 51.60661 | 8.59774 | 827 ft | 134 kts | 60° |
| 2026-05-08 21:45 | 51.61152 | 8.61011 | 719 ft | 120 kts | 59° |
| 2026-05-08 21:45 | 51.61521 | 8.61916 | 701 ft | 74 kts | 56° |
| 2026-05-08 21:45 | 51.61738 | 8.62449 | 689 ft | 50 kts | 57° |
| 2026-05-08 21:46 | 51.61891 | 8.62823 | 686 ft | 28 kts | 60° |
| 2026-05-08 21:46 | 51.61843 | 8.63063 | 683 ft | 26 kts | 176° |
| 2026-05-08 21:46 | 51.61718 | 8.62876 | 688 ft | 25 kts | 236° |
| 2026-05-08 21:46 | 51.61628 | 8.62656 | 689 ft | 23 kts | 237° |
| 2026-05-08 21:47 | 51.61545 | 8.62453 | 702 ft | 21 kts | 237° |
| 2026-05-08 21:47 | 51.61470 | 8.62265 | 713 ft | 19 kts | 236° |
| 2026-05-08 21:47 | 51.61400 | 8.62095 | 718 ft | 17 kts | 233° |
| 2026-05-08 21:47 | 51.61289 | 8.61994 | 726 ft | 19 kts | 192° |
| 2026-05-08 21:48 | 51.61229 | 8.62013 | 731 ft | 3 kts | 121° |
| 2026-05-08 21:48 | 51.61205 | 8.62050 | 731 ft | 6 kts | 147° |
| 2026-05-08 21:48 | 51.61180 | 8.62077 | 731 ft | 2 kts | 146° |
| 2026-05-08 21:48 | 51.61174 | 8.62084 | 731 ft | 0 kts | 146° |
| 2026-05-08 21:49 | 51.61170 | 8.62088 | 731 ft | 0 kts | 146° |